createdAt,value
2023-01-19T00:00:01.288Z,20.00
2023-01-19T00:01:05.125Z,20.40
2023-01-19T00:02:08.749Z,20.70
2023-01-19T00:03:15.812Z,20.50
2023-01-19T00:04:19.461Z,20.30
2023-01-19T00:05:23.071Z,22.90
2023-01-19T00:06:27.142Z,20.70
2023-01-19T00:07:32.245Z,18.70
2023-01-19T00:08:36.129Z,20.80
2023-01-19T00:09:40.047Z,20.50
2023-01-19T00:10:46.716Z,20.20
2023-01-19T00:11:50.866Z,20.10
2023-01-19T00:12:54.550Z,21.20
2023-01-19T00:13:59.297Z,19.90
2023-01-19T00:15:03.213Z,21.90
2023-01-19T00:16:07.658Z,20.20
2023-01-19T00:17:11.341Z,22.00
2023-01-19T00:18:15.130Z,22.40
2023-01-19T00:19:18.927Z,19.40
2023-01-19T00:20:22.601Z,20.50
2023-01-19T00:21:26.523Z,21.50
2023-01-19T00:22:30.142Z,20.00
2023-01-19T00:23:33.893Z,20.90
2023-01-19T00:24:37.560Z,21.30
2023-01-19T00:25:43.750Z,20.50
2023-01-19T00:26:47.584Z,21.60
2023-01-19T00:27:51.336Z,21.70
2023-01-19T00:28:55.043Z,19.40
2023-01-19T00:29:58.756Z,19.40
2023-01-19T00:31:02.402Z,22.90
2023-01-19T00:32:06.262Z,20.20
2023-01-19T00:33:13.869Z,21.70
2023-01-19T00:34:17.709Z,20.10
2023-01-19T00:35:21.407Z,20.20
2023-01-19T00:36:25.085Z,19.30
2023-01-19T00:37:28.683Z,20.70
2023-01-19T00:38:32.323Z,20.40
2023-01-19T00:39:35.944Z,21.20
2023-01-19T00:40:39.675Z,20.30
2023-01-19T00:42:15.926Z,20.20
2023-01-19T00:43:19.634Z,18.10
2023-01-19T00:44:23.328Z,20.00
2023-01-19T00:45:27.134Z,20.50
2023-01-19T00:46:30.898Z,21.30
2023-01-19T00:47:34.599Z,23.70
2023-01-19T00:48:38.388Z,18.70
2023-01-19T00:49:42.015Z,19.40
2023-01-19T00:50:45.625Z,18.70
2023-01-19T00:51:49.952Z,19.80
2023-01-19T00:52:55.830Z,20.60
2023-01-19T00:54:04.969Z,19.10
2023-01-19T00:55:11.320Z,19.50
2023-01-19T00:56:14.949Z,17.80
2023-01-19T00:57:19.234Z,19.50
2023-01-19T00:58:23.389Z,20.30
2023-01-19T00:59:27.001Z,22.00
2023-01-19T01:00:30.916Z,19.10
2023-01-19T01:01:45.343Z,19.80
2023-01-19T01:02:52.678Z,20.20
2023-01-19T01:03:56.496Z,19.60
2023-01-19T01:05:02.755Z,18.30
2023-01-19T01:06:08.275Z,20.50
2023-01-19T01:07:12.002Z,19.70
2023-01-19T01:08:15.617Z,19.10
2023-01-19T01:09:19.256Z,21.10
2023-01-19T01:10:26.147Z,21.30
2023-01-19T01:11:29.739Z,19.10
2023-01-19T01:12:33.356Z,19.80
2023-01-19T01:13:37.209Z,19.90
2023-01-19T01:14:40.925Z,19.70
2023-01-19T01:15:44.546Z,19.60
2023-01-19T01:16:48.332Z,21.30
2023-01-19T01:17:53.138Z,18.40
2023-01-19T01:18:57.005Z,19.60
2023-01-19T01:20:00.746Z,18.90
2023-01-19T01:21:06.079Z,18.70
2023-01-19T01:22:10.463Z,20.40
2023-01-19T01:23:14.623Z,19.40
2023-01-19T01:24:18.878Z,19.00
2023-01-19T01:25:25.036Z,18.50
2023-01-19T01:26:28.822Z,20.30
2023-01-19T01:27:32.461Z,20.60
2023-01-19T01:28:36.293Z,19.00
2023-01-19T01:29:41.183Z,19.30
2023-01-19T01:30:44.824Z,18.20
2023-01-19T01:31:48.527Z,19.10
2023-01-19T01:32:52.136Z,19.50
2023-01-19T01:33:55.809Z,18.30
2023-01-19T01:34:59.474Z,20.50
2023-01-19T01:36:03.381Z,18.80
2023-01-19T01:37:10.215Z,19.00
2023-01-19T01:38:15.564Z,18.90
2023-01-19T01:39:19.309Z,17.80
2023-01-19T01:40:22.867Z,22.30
2023-01-19T01:41:27.455Z,20.50
2023-01-19T01:42:32.219Z,19.60
2023-01-19T01:43:54.140Z,18.40
2023-01-19T01:45:00.874Z,16.80
2023-01-19T01:46:04.589Z,16.30
2023-01-19T01:47:08.392Z,18.50
2023-01-19T01:48:30.373Z,20.00
2023-01-19T01:49:34.022Z,20.70
2023-01-19T01:51:04.596Z,17.40
2023-01-19T01:52:08.290Z,15.80
2023-01-19T01:53:14.635Z,16.20
2023-01-19T01:54:25.961Z,20.00
2023-01-19T01:55:31.588Z,19.70
2023-01-19T01:56:38.898Z,21.00
2023-01-19T01:57:49.362Z,21.10
2023-01-19T01:58:53.665Z,16.80
2023-01-19T01:59:58.200Z,17.90
2023-01-19T02:01:20.941Z,20.50
2023-01-19T02:02:48.469Z,17.90
2023-01-19T02:03:53.573Z,18.00
2023-01-19T02:05:10.489Z,18.40
2023-01-19T02:06:14.762Z,15.90
2023-01-19T02:07:45.507Z,14.70
2023-01-19T02:09:26.256Z,17.00
2023-01-19T02:10:49.987Z,18.40
2023-01-19T02:12:12.787Z,13.90
2023-01-19T02:13:22.440Z,15.80
2023-01-19T02:14:26.102Z,19.10
2023-01-19T02:15:29.699Z,16.10
2023-01-19T02:16:34.836Z,17.80
2023-01-19T02:17:38.607Z,19.00
2023-01-19T02:18:45.309Z,21.20
2023-01-19T02:19:49.044Z,17.60
2023-01-19T02:21:23.928Z,18.30
2023-01-19T02:22:38.626Z,15.90
2023-01-19T02:23:44.565Z,19.80
2023-01-19T02:24:50.038Z,20.70
2023-01-19T02:25:53.968Z,18.90
2023-01-19T02:26:58.777Z,18.70
2023-01-19T02:28:03.351Z,20.00
2023-01-19T02:29:15.095Z,19.60
2023-01-19T02:30:19.448Z,19.40
2023-01-19T02:31:24.301Z,20.90
2023-01-19T02:32:28.088Z,19.30
2023-01-19T02:33:31.883Z,21.00
2023-01-19T02:34:35.869Z,17.30
2023-01-19T02:35:41.141Z,20.70
2023-01-19T02:36:50.103Z,21.60
2023-01-19T02:37:54.350Z,20.00
2023-01-19T02:39:00.194Z,16.90
2023-01-19T02:40:06.975Z,18.40
2023-01-19T02:41:15.094Z,18.60
2023-01-19T02:42:24.205Z,17.00
2023-01-19T02:43:29.498Z,18.20
2023-01-19T02:44:34.935Z,20.80
2023-01-19T02:45:39.552Z,18.30
2023-01-19T02:46:44.172Z,18.90
2023-01-19T02:47:51.418Z,19.50
2023-01-19T02:48:59.311Z,21.60
2023-01-19T02:50:03.006Z,16.30
2023-01-19T02:51:16.964Z,18.70
2023-01-19T02:52:20.583Z,17.40
2023-01-19T02:53:29.958Z,17.40
2023-01-19T02:54:52.094Z,16.30
2023-01-19T02:56:48.176Z,16.50
2023-01-19T02:57:57.059Z,13.80
2023-01-19T02:59:06.849Z,14.40
2023-01-19T03:00:16.903Z,15.70
2023-01-19T03:01:30.877Z,17.70
2023-01-19T03:02:44.069Z,17.20
2023-01-19T03:03:57.168Z,16.80
2023-01-19T03:05:17.530Z,15.20
2023-01-19T03:06:33.127Z,16.00
2023-01-19T03:07:59.021Z,15.00
2023-01-19T03:09:15.921Z,15.20
2023-01-19T03:10:36.741Z,15.10
2023-01-19T03:11:46.474Z,16.80
2023-01-19T03:12:53.428Z,16.40
2023-01-19T03:14:08.882Z,15.90
2023-01-19T03:15:55.115Z,17.60
2023-01-19T03:17:02.567Z,14.40
2023-01-19T03:18:10.331Z,18.90
2023-01-19T03:19:24.865Z,17.40
2023-01-19T03:20:29.118Z,17.50
2023-01-19T03:21:35.714Z,15.80
2023-01-19T03:22:39.491Z,16.90
2023-01-19T03:23:46.512Z,16.50
2023-01-19T03:24:53.604Z,16.70
2023-01-19T03:26:00.267Z,18.30
2023-01-19T03:27:10.381Z,17.00
2023-01-19T03:28:16.244Z,17.00
2023-01-19T03:29:22.470Z,14.10
2023-01-19T03:30:35.186Z,18.50
2023-01-19T03:31:41.631Z,15.20
2023-01-19T03:33:09.698Z,17.60
2023-01-19T03:34:16.360Z,17.00
2023-01-19T03:35:23.567Z,17.90
2023-01-19T03:36:32.519Z,16.40
2023-01-19T03:37:41.387Z,17.90
2023-01-19T03:38:47.521Z,16.60
2023-01-19T03:39:51.130Z,18.20
2023-01-19T03:41:00.133Z,20.40
2023-01-19T03:42:11.416Z,18.00
2023-01-19T03:43:17.443Z,18.00
2023-01-19T03:44:23.490Z,17.00
2023-01-19T03:45:27.832Z,18.30
2023-01-19T03:46:32.786Z,17.30
2023-01-19T03:47:36.543Z,17.80
2023-01-19T03:48:41.855Z,18.80
2023-01-19T03:49:47.089Z,16.50
2023-01-19T03:50:52.737Z,15.70
2023-01-19T03:51:58.876Z,17.20
2023-01-19T03:53:11.560Z,17.50
2023-01-19T03:54:15.158Z,17.20
2023-01-19T03:55:19.037Z,18.40
2023-01-19T03:56:25.254Z,18.80
2023-01-19T03:57:28.902Z,18.60
2023-01-19T03:58:32.673Z,19.20
2023-01-19T03:59:36.334Z,19.70
2023-01-19T04:00:40.329Z,17.60
2023-01-19T04:01:44.076Z,18.60
2023-01-19T04:02:47.855Z,18.80
2023-01-19T04:03:52.665Z,18.30
2023-01-19T04:04:56.306Z,19.20
2023-01-19T04:05:59.997Z,19.70
2023-01-19T04:07:03.563Z,20.30
2023-01-19T04:08:07.330Z,19.50
2023-01-19T04:09:10.950Z,18.60
2023-01-19T04:10:16.140Z,20.40
2023-01-19T04:11:19.774Z,16.50
2023-01-19T04:12:23.559Z,17.00
2023-01-19T04:13:28.554Z,14.90
2023-01-19T04:14:32.360Z,18.90
2023-01-19T04:15:35.960Z,19.10
2023-01-19T04:16:39.708Z,18.50
2023-01-19T04:17:43.272Z,18.90
2023-01-19T04:18:48.298Z,19.80
2023-01-19T04:19:53.251Z,19.10
2023-01-19T04:21:05.737Z,17.80
2023-01-19T04:22:09.327Z,20.50
2023-01-19T04:23:12.903Z,20.20
2023-01-19T04:24:17.458Z,18.70
2023-01-19T04:25:21.502Z,17.50
2023-01-19T04:26:26.977Z,18.50
2023-01-19T04:27:30.630Z,17.60
2023-01-19T04:28:35.337Z,17.70
2023-01-19T04:29:38.884Z,19.20
2023-01-19T04:30:42.441Z,17.80
2023-01-19T04:31:46.042Z,17.30
2023-01-19T04:32:49.820Z,17.90
2023-01-19T04:33:53.349Z,16.00
2023-01-19T04:34:57.003Z,18.40
2023-01-19T04:36:00.951Z,17.00
2023-01-19T04:37:04.731Z,18.40
2023-01-19T04:38:08.336Z,20.00
2023-01-19T04:39:12.297Z,18.40
2023-01-19T04:40:16.099Z,17.70
2023-01-19T04:41:19.877Z,17.90
2023-01-19T04:42:23.952Z,17.00
2023-01-19T04:43:27.574Z,16.50
2023-01-19T04:44:31.180Z,18.20
2023-01-19T04:45:36.613Z,17.10
2023-01-19T04:46:40.322Z,17.30
2023-01-19T04:47:43.987Z,16.50
2023-01-19T04:48:47.589Z,16.70
2023-01-19T04:49:51.268Z,17.80
2023-01-19T04:50:54.876Z,19.50
2023-01-19T04:51:58.793Z,17.00
2023-01-19T04:53:02.804Z,17.40
2023-01-19T04:54:08.888Z,19.60
2023-01-19T04:55:12.877Z,16.90
2023-01-19T04:56:16.539Z,16.90
2023-01-19T04:57:20.195Z,17.50
2023-01-19T04:58:23.848Z,20.60
2023-01-19T04:59:27.558Z,18.50
2023-01-19T05:00:32.268Z,18.90
2023-01-19T05:01:36.889Z,16.50
2023-01-19T05:02:43.947Z,17.70
2023-01-19T05:03:47.816Z,18.70
2023-01-19T05:04:51.972Z,18.00
2023-01-19T05:05:55.675Z,17.70
2023-01-19T05:06:59.377Z,18.50
2023-01-19T05:08:03.421Z,18.30
2023-01-19T05:09:09.027Z,16.60
2023-01-19T05:10:13.323Z,17.90
2023-01-19T05:11:17.012Z,18.30
2023-01-19T05:12:20.823Z,18.20
2023-01-19T05:13:24.469Z,17.60
2023-01-19T05:14:28.079Z,17.40
2023-01-19T05:15:31.779Z,19.40
2023-01-19T05:16:35.690Z,16.30
2023-01-19T05:17:39.752Z,17.50
2023-01-19T05:18:43.474Z,20.10
2023-01-19T05:19:48.867Z,18.50
2023-01-19T05:20:52.916Z,18.50
2023-01-19T05:21:57.517Z,19.30
2023-01-19T05:24:05.752Z,17.40
2023-01-19T05:25:09.787Z,16.90
2023-01-19T05:26:13.573Z,14.30
2023-01-19T05:27:17.287Z,17.20
2023-01-19T05:28:21.676Z,17.40
2023-01-19T05:29:26.488Z,19.50
2023-01-19T05:30:30.383Z,17.20
2023-01-19T05:31:37.396Z,17.20
2023-01-19T05:33:44.706Z,14.10
2023-01-19T05:34:48.329Z,20.00
2023-01-19T05:35:53.412Z,17.50
2023-01-19T05:36:57.110Z,18.10
2023-01-19T05:38:00.873Z,18.80
2023-01-19T05:39:04.629Z,19.60
2023-01-19T05:40:09.220Z,19.50
2023-01-19T05:42:17.131Z,12.60
2023-01-19T05:43:20.717Z,15.90
2023-01-19T05:44:24.373Z,16.70
2023-01-19T05:45:28.378Z,16.30
2023-01-19T05:46:34.364Z,17.80
2023-01-19T05:47:38.340Z,18.30
2023-01-19T05:48:41.978Z,18.30
2023-01-19T05:49:45.539Z,17.20
2023-01-19T05:50:49.689Z,16.20
2023-01-19T05:51:53.649Z,15.60
2023-01-19T05:52:57.835Z,16.60
2023-01-19T05:54:01.858Z,17.80
2023-01-19T05:55:06.069Z,16.20
2023-01-19T05:56:11.218Z,15.90
2023-01-19T05:57:14.778Z,17.40
2023-01-19T05:58:18.422Z,19.00
2023-01-19T05:59:24.325Z,17.80
2023-01-19T06:00:29.230Z,17.70
2023-01-19T06:01:36.512Z,19.80
2023-01-19T06:02:41.234Z,15.30
2023-01-19T06:03:45.068Z,18.10
2023-01-19T06:04:48.855Z,18.00
2023-01-19T06:05:52.518Z,17.10
2023-01-19T06:06:56.237Z,17.90
2023-01-19T06:07:59.883Z,17.40
2023-01-19T06:09:03.546Z,20.50
2023-01-19T06:10:08.086Z,17.30
2023-01-19T06:11:12.081Z,16.40
2023-01-19T06:12:15.863Z,16.90
2023-01-19T06:13:19.818Z,17.10
2023-01-19T06:14:23.452Z,16.20
2023-01-19T06:15:27.418Z,15.30
2023-01-19T06:16:33.175Z,16.20
2023-01-19T06:17:37.222Z,18.50
2023-01-19T06:18:41.235Z,18.00
2023-01-19T06:19:44.789Z,16.80
2023-01-19T06:20:48.784Z,17.20
2023-01-19T06:21:52.599Z,15.00
2023-01-19T06:22:59.734Z,17.60
2023-01-19T06:24:04.037Z,13.70
2023-01-19T06:25:08.224Z,17.10
2023-01-19T06:26:11.860Z,16.10
2023-01-19T06:27:15.447Z,18.30
2023-01-19T06:28:19.085Z,18.60
2023-01-19T06:29:23.077Z,17.00
2023-01-19T06:30:27.092Z,17.50
2023-01-19T06:31:30.823Z,15.80
2023-01-19T06:32:34.658Z,12.70
2023-01-19T06:33:38.436Z,16.40
2023-01-19T06:34:43.796Z,16.50
2023-01-19T06:35:49.699Z,17.90
2023-01-19T06:36:53.453Z,16.60
2023-01-19T06:37:57.139Z,15.40
2023-01-19T06:39:03.366Z,15.30
2023-01-19T06:40:08.152Z,16.40
2023-01-19T06:41:11.815Z,15.90
2023-01-19T06:42:15.462Z,13.00
2023-01-19T06:43:20.260Z,14.20
2023-01-19T06:44:23.858Z,16.20
2023-01-19T06:45:27.611Z,13.80
2023-01-19T06:46:31.885Z,15.70
2023-01-19T06:47:35.964Z,11.90
2023-01-19T06:48:39.815Z,15.20
2023-01-19T06:49:43.867Z,16.60
2023-01-19T06:51:52.276Z,10.90
2023-01-19T06:52:56.072Z,12.00
2023-01-19T06:54:00.041Z,16.30
2023-01-19T06:55:03.956Z,14.50
2023-01-19T06:56:09.341Z,14.20
2023-01-19T06:57:14.209Z,14.50
2023-01-19T06:59:21.454Z,12.80
2023-01-19T07:00:26.274Z,15.20
2023-01-19T07:01:30.289Z,14.60
2023-01-19T07:02:35.346Z,12.50
2023-01-19T07:03:39.328Z,13.80
2023-01-19T07:04:42.930Z,16.20
2023-01-19T07:05:49.804Z,14.90
2023-01-19T07:06:53.453Z,13.90
2023-01-19T07:07:57.791Z,13.50
2023-01-19T07:09:04.594Z,16.10
2023-01-19T07:10:11.645Z,15.10
2023-01-19T07:11:24.755Z,16.70
2023-01-19T07:12:34.499Z,16.20
2023-01-19T07:13:39.917Z,15.00
2023-01-19T07:14:43.907Z,16.30
2023-01-19T07:15:48.902Z,15.40
2023-01-19T07:16:52.609Z,16.40
2023-01-19T07:18:00.053Z,14.60
2023-01-19T07:19:04.224Z,15.50
2023-01-19T07:20:15.599Z,15.00
2023-01-19T07:21:19.339Z,14.80
2023-01-19T07:22:23.042Z,16.20
2023-01-19T07:23:30.321Z,16.20
2023-01-19T07:24:35.029Z,14.90
2023-01-19T07:25:39.517Z,15.30
2023-01-19T07:26:43.378Z,13.80
2023-01-19T07:27:47.029Z,14.30
2023-01-19T07:28:52.377Z,15.10
2023-01-19T07:29:56.064Z,14.10
2023-01-19T07:30:59.911Z,16.20
2023-01-19T07:32:04.418Z,18.00
2023-01-19T07:33:08.287Z,16.00
2023-01-19T07:34:12.614Z,15.40
2023-01-19T07:35:16.525Z,16.90
2023-01-19T07:36:20.148Z,18.10
2023-01-19T07:37:23.814Z,15.20
2023-01-19T07:38:27.468Z,16.60
2023-01-19T07:39:32.024Z,17.00
2023-01-19T07:40:35.803Z,17.10
2023-01-19T07:41:39.630Z,16.30
2023-01-19T07:42:50.462Z,15.70
2023-01-19T07:43:54.328Z,16.60
2023-01-19T07:44:58.266Z,15.30
2023-01-19T07:46:04.983Z,17.40
2023-01-19T07:47:11.235Z,16.80
2023-01-19T07:48:14.968Z,16.70
2023-01-19T07:49:18.609Z,17.90
2023-01-19T07:50:25.516Z,17.30
2023-01-19T07:51:29.378Z,18.70
2023-01-19T07:52:33.102Z,18.00
2023-01-19T07:53:36.831Z,16.70
2023-01-19T07:54:40.568Z,19.10
2023-01-19T07:55:44.605Z,17.90
2023-01-19T07:56:48.287Z,17.80
2023-01-19T07:57:52.124Z,17.50
2023-01-19T07:58:56.161Z,16.30
2023-01-19T07:59:59.991Z,16.40
2023-01-19T08:01:12.117Z,16.40
2023-01-19T08:02:17.276Z,16.60
2023-01-19T08:03:21.132Z,15.70
2023-01-19T08:04:28.462Z,16.20
2023-01-19T08:05:33.409Z,13.30
2023-01-19T08:06:39.087Z,15.10
2023-01-19T08:07:42.863Z,16.60
2023-01-19T08:08:46.569Z,16.50
2023-01-19T08:09:50.395Z,17.60
2023-01-19T08:10:54.111Z,18.20
2023-01-19T08:11:57.909Z,15.40
2023-01-19T08:13:01.862Z,15.20
2023-01-19T08:14:07.849Z,16.00
2023-01-19T08:15:11.897Z,15.80
2023-01-19T08:16:15.606Z,14.10
2023-01-19T08:17:19.581Z,15.40
2023-01-19T08:18:23.146Z,18.50
2023-01-19T08:19:27.099Z,16.60
2023-01-19T08:20:31.562Z,16.60
2023-01-19T08:21:36.334Z,12.60
2023-01-19T08:22:39.970Z,15.70
2023-01-19T08:23:44.099Z,15.50
2023-01-19T08:24:50.297Z,16.90
2023-01-19T08:25:54.571Z,16.00
2023-01-19T08:27:02.751Z,14.20
2023-01-19T08:28:07.226Z,13.70
2023-01-19T08:29:10.931Z,14.90
2023-01-19T08:30:14.833Z,16.40
2023-01-19T08:31:20.431Z,14.40
2023-01-19T08:32:26.301Z,17.30
2023-01-19T08:33:29.927Z,16.30
2023-01-19T08:34:33.737Z,16.40
2023-01-19T08:35:39.523Z,15.10
2023-01-19T08:36:43.191Z,14.90
2023-01-19T08:37:47.225Z,14.20
2023-01-19T08:38:52.452Z,16.10
2023-01-19T08:39:56.102Z,15.50
2023-01-19T08:41:02.550Z,16.10
2023-01-19T08:42:06.179Z,16.90
2023-01-19T08:43:13.259Z,15.20
2023-01-19T08:44:17.137Z,14.60
2023-01-19T08:45:20.836Z,14.80
2023-01-19T08:46:24.684Z,16.60
2023-01-19T08:47:29.430Z,15.00
2023-01-19T08:50:40.533Z,11.30
2023-01-19T08:51:46.967Z,14.90
2023-01-19T08:52:50.650Z,12.90
2023-01-19T08:53:54.372Z,14.70
2023-01-19T08:54:58.043Z,15.40
2023-01-19T08:56:02.354Z,16.40
2023-01-19T08:57:06.059Z,15.60
2023-01-19T08:58:10.145Z,14.70
2023-01-19T08:59:14.277Z,15.80
2023-01-19T09:00:18.963Z,14.50
2023-01-19T09:02:26.591Z,9.60
2023-01-19T09:03:30.350Z,10.70
2023-01-19T09:04:35.047Z,14.60
2023-01-19T09:05:39.168Z,14.50
2023-01-19T09:06:42.784Z,12.30
2023-01-19T09:07:48.078Z,15.00
2023-01-19T09:08:51.801Z,13.10
2023-01-19T09:09:55.496Z,14.70
2023-01-19T09:10:59.216Z,15.80
2023-01-19T09:12:03.064Z,14.80
2023-01-19T09:13:11.080Z,12.80
2023-01-19T09:14:14.767Z,13.50
2023-01-19T09:15:18.613Z,14.40
2023-01-19T09:16:22.401Z,13.60
2023-01-19T09:17:26.232Z,16.40
2023-01-19T09:18:30.224Z,14.80
2023-01-19T09:19:35.034Z,15.30
2023-01-19T09:20:43.397Z,18.00
2023-01-19T09:21:47.081Z,15.50
2023-01-19T09:22:50.692Z,15.10
2023-01-19T09:23:54.800Z,18.50
2023-01-19T09:24:58.619Z,17.10
2023-01-19T09:26:04.012Z,15.70
2023-01-19T09:27:07.669Z,15.60
2023-01-19T09:28:14.685Z,15.40
2023-01-19T09:29:18.487Z,14.30
2023-01-19T09:30:22.234Z,16.70
2023-01-19T09:31:25.970Z,15.70
2023-01-19T09:32:29.822Z,15.70
2023-01-19T09:33:34.467Z,14.10
2023-01-19T09:34:38.169Z,15.30
2023-01-19T09:35:42.670Z,15.50
2023-01-19T09:37:50.889Z,11.00
2023-01-19T09:38:54.607Z,14.90
2023-01-19T09:39:58.307Z,12.00
2023-01-19T09:41:01.969Z,13.80
2023-01-19T09:42:37.199Z,14.90
2023-01-19T09:44:17.672Z,16.70
2023-01-19T09:45:47.335Z,10.60
2023-01-19T09:46:51.209Z,16.00
2023-01-19T09:47:57.148Z,15.10
2023-01-19T09:49:31.630Z,14.90
2023-01-19T09:50:39.709Z,10.20
2023-01-19T09:51:49.421Z,14.50
2023-01-19T09:53:01.312Z,14.60
2023-01-19T09:54:15.735Z,13.60
2023-01-19T09:55:27.520Z,13.00
2023-01-19T09:56:32.186Z,14.50
2023-01-19T09:57:36.119Z,12.20
2023-01-19T09:58:41.128Z,14.80
2023-01-19T09:59:47.960Z,15.60
2023-01-19T10:01:00.575Z,13.00
2023-01-19T10:02:42.168Z,14.00
2023-01-19T10:03:48.932Z,14.40
2023-01-19T10:05:05.310Z,16.90
2023-01-19T10:06:13.988Z,15.40
2023-01-19T10:07:32.329Z,15.00
2023-01-19T10:08:47.069Z,16.00
2023-01-19T10:10:04.183Z,13.30
2023-01-19T10:11:26.304Z,12.00
2023-01-19T10:13:02.705Z,14.30
2023-01-19T10:14:19.881Z,12.80
2023-01-19T10:15:29.434Z,14.10
2023-01-19T10:17:15.707Z,16.40
2023-01-19T10:18:26.578Z,9.70
2023-01-19T10:19:37.951Z,10.90
2023-01-19T10:20:52.063Z,14.60
2023-01-19T10:21:58.849Z,15.90
2023-01-19T10:23:06.042Z,15.40
2023-01-19T10:24:30.325Z,13.80
2023-01-19T10:25:34.303Z,14.60
2023-01-19T10:26:46.714Z,14.60
2023-01-19T10:27:50.476Z,14.20
2023-01-19T10:29:12.357Z,13.60
2023-01-19T10:30:23.356Z,11.70
2023-01-19T10:32:35.901Z,12.60
2023-01-19T10:33:40.035Z,15.10
2023-01-19T10:34:43.927Z,12.80
2023-01-19T10:35:48.733Z,13.20
2023-01-19T10:36:58.942Z,13.70
2023-01-19T10:38:03.236Z,15.40
2023-01-19T10:39:08.107Z,13.80
2023-01-19T10:40:11.798Z,15.80
2023-01-19T10:41:36.860Z,16.50
2023-01-19T10:42:42.246Z,13.50
2023-01-19T10:43:47.600Z,15.50
2023-01-19T10:44:51.322Z,15.60
2023-01-19T10:45:55.120Z,13.60
2023-01-19T10:47:00.125Z,16.40
2023-01-19T10:48:07.806Z,12.10
2023-01-19T10:49:28.513Z,10.30
2023-01-19T10:50:37.036Z,14.10
2023-01-19T10:51:49.289Z,15.20
2023-01-19T10:52:55.479Z,13.60
2023-01-19T10:54:02.336Z,13.20
2023-01-19T10:55:12.020Z,14.90
2023-01-19T10:56:22.563Z,14.60
2023-01-19T10:57:36.576Z,15.30
2023-01-19T10:58:41.079Z,14.70
2023-01-19T10:59:44.761Z,15.30
2023-01-19T11:00:48.677Z,16.90
2023-01-19T11:02:14.969Z,15.70
2023-01-19T11:03:29.349Z,14.60
2023-01-19T11:04:33.018Z,15.00
2023-01-19T11:05:36.805Z,14.90
2023-01-19T11:06:40.481Z,12.90
2023-01-19T11:07:44.207Z,14.00
2023-01-19T11:08:51.354Z,15.00
2023-01-19T11:10:17.344Z,12.40
2023-01-19T11:11:23.622Z,14.80
2023-01-19T11:12:27.444Z,12.30
2023-01-19T11:13:32.207Z,12.80
2023-01-19T11:14:36.014Z,12.90
2023-01-19T11:15:54.982Z,13.40
2023-01-19T11:16:59.086Z,14.60
2023-01-19T11:18:06.452Z,13.00
2023-01-19T11:19:19.837Z,14.90
2023-01-19T11:20:28.522Z,15.00
2023-01-19T11:21:33.057Z,16.60
2023-01-19T11:22:36.750Z,14.70
2023-01-19T11:23:51.194Z,15.40
2023-01-19T11:24:59.037Z,12.10
2023-01-19T11:26:05.636Z,12.80
2023-01-19T11:27:09.355Z,13.20
2023-01-19T11:28:22.561Z,13.20
2023-01-19T11:29:27.445Z,10.80
2023-01-19T11:30:35.523Z,11.80
2023-01-19T11:31:39.345Z,12.80
2023-01-19T11:32:43.153Z,10.60
2023-01-19T11:33:47.682Z,12.30
2023-01-19T11:34:52.221Z,9.90
2023-01-19T11:36:07.210Z,11.40
2023-01-19T11:37:17.202Z,13.80
2023-01-19T11:38:23.799Z,13.10
2023-01-19T11:39:30.467Z,13.30
2023-01-19T11:40:35.869Z,14.20
2023-01-19T11:41:41.012Z,13.00
2023-01-19T11:43:53.193Z,11.30
2023-01-19T11:45:10.298Z,12.40
2023-01-19T11:46:15.274Z,13.50
2023-01-19T11:47:25.683Z,13.90
2023-01-19T11:48:35.910Z,10.80
2023-01-19T11:49:49.479Z,12.70
2023-01-19T11:50:54.531Z,12.50
2023-01-19T11:52:13.775Z,12.00
2023-01-19T11:53:30.607Z,15.70
2023-01-19T11:54:57.889Z,13.00
2023-01-19T11:56:14.364Z,12.00
2023-01-19T11:57:18.299Z,11.80
2023-01-19T11:58:22.898Z,11.00
2023-01-19T11:59:26.818Z,11.70
2023-01-19T12:01:21.099Z,12.30
2023-01-19T12:02:32.176Z,12.80
2023-01-19T12:03:54.883Z,11.70
2023-01-19T12:05:05.012Z,12.60
2023-01-19T12:06:20.512Z,12.40
2023-01-19T12:07:31.300Z,10.90
2023-01-19T12:08:39.392Z,14.30
2023-01-19T12:09:47.504Z,15.50
2023-01-19T12:10:55.284Z,13.30
2023-01-19T12:12:15.787Z,13.50
2023-01-19T12:13:22.380Z,15.90
2023-01-19T12:14:38.340Z,13.20
2023-01-19T12:15:44.599Z,14.00
2023-01-19T12:16:52.455Z,13.00
2023-01-19T12:18:00.481Z,13.60
2023-01-19T12:19:14.627Z,13.80
2023-01-19T12:20:26.933Z,13.50
2023-01-19T12:21:30.799Z,12.50
2023-01-19T12:22:43.182Z,13.80
2023-01-19T12:24:08.449Z,13.30
2023-01-19T12:25:45.515Z,12.40
2023-01-19T12:27:11.173Z,11.80
2023-01-19T12:28:17.779Z,14.30
2023-01-19T12:29:24.746Z,14.80
2023-01-19T12:30:30.400Z,14.20
2023-01-19T12:31:35.073Z,12.50
2023-01-19T12:32:38.931Z,13.70
2023-01-19T12:33:42.751Z,14.80
2023-01-19T12:34:50.103Z,12.10
2023-01-19T12:36:29.704Z,13.70
2023-01-19T12:37:36.024Z,11.00
2023-01-19T12:38:54.801Z,11.60
2023-01-19T12:40:17.438Z,11.00
2023-01-19T12:41:27.372Z,12.40
2023-01-19T12:42:31.826Z,12.90
2023-01-19T12:43:35.544Z,10.60
2023-01-19T12:44:39.704Z,13.30
2023-01-19T12:45:46.112Z,11.10
2023-01-19T12:47:06.416Z,13.70
2023-01-19T12:48:25.335Z,10.80
2023-01-19T12:49:40.104Z,12.80
2023-01-19T12:50:46.250Z,11.60
2023-01-19T12:51:52.355Z,12.70
2023-01-19T12:52:59.360Z,14.90
2023-01-19T12:54:08.708Z,12.00
2023-01-19T12:55:15.667Z,12.20
2023-01-19T12:56:20.397Z,11.80
2023-01-19T12:57:35.105Z,13.90
2023-01-19T12:58:38.825Z,12.20
2023-01-19T12:59:43.134Z,12.60
2023-01-19T13:01:10.963Z,11.80
2023-01-19T13:02:20.800Z,11.20
2023-01-19T13:03:25.161Z,11.40
2023-01-19T13:04:31.391Z,12.40
2023-01-19T13:05:41.149Z,10.80
2023-01-19T13:06:48.172Z,10.40
2023-01-19T13:08:09.537Z,9.00
2023-01-19T13:09:45.422Z,6.30
2023-01-19T13:12:15.510Z,5.80
2023-01-19T13:13:50.159Z,9.20
2023-01-19T13:15:27.669Z,8.80
2023-01-19T13:16:31.366Z,7.80
2023-01-19T13:18:01.965Z,8.30
2023-01-19T13:19:06.149Z,8.20
2023-01-19T13:20:24.983Z,9.50
2023-01-19T13:21:54.209Z,9.50
2023-01-19T13:23:18.790Z,8.30
2023-01-19T13:24:23.415Z,9.30
2023-01-19T13:26:35.478Z,8.00
2023-01-19T13:27:40.761Z,6.60
2023-01-19T13:28:50.552Z,7.00
2023-01-19T13:29:54.267Z,8.90
2023-01-19T13:31:00.027Z,8.10
2023-01-19T13:32:16.080Z,8.00
2023-01-19T13:33:23.407Z,9.00
2023-01-19T13:34:28.222Z,8.40
2023-01-19T13:35:32.351Z,9.30
2023-01-19T13:36:40.991Z,8.70
2023-01-19T13:37:45.848Z,8.50
2023-01-19T13:38:51.665Z,8.50
2023-01-19T13:39:55.834Z,7.80
2023-01-19T13:41:01.866Z,10.00
2023-01-19T13:42:13.906Z,8.30
2023-01-19T13:43:22.021Z,10.90
2023-01-19T13:44:29.029Z,11.10
2023-01-19T13:45:38.297Z,9.00
2023-01-19T13:46:42.879Z,8.60
2023-01-19T13:47:50.581Z,8.60
2023-01-19T13:48:58.857Z,9.20
2023-01-19T13:50:03.078Z,9.30
2023-01-19T13:52:16.850Z,5.90
2023-01-19T13:53:21.575Z,7.50
2023-01-19T13:54:26.121Z,8.30
2023-01-19T13:56:34.416Z,7.90
2023-01-19T13:57:42.297Z,8.40
2023-01-19T13:59:03.941Z,8.40
2023-01-19T14:00:08.524Z,7.80
2023-01-19T14:01:21.872Z,7.90
2023-01-19T14:02:26.072Z,9.40
2023-01-19T14:03:29.944Z,7.20
2023-01-19T14:04:34.080Z,9.20
2023-01-19T14:05:39.871Z,8.60
2023-01-19T14:06:48.874Z,8.90
2023-01-19T14:08:08.872Z,9.60
2023-01-19T14:09:19.687Z,9.60
2023-01-19T14:10:23.512Z,9.10
2023-01-19T14:11:27.246Z,8.80
2023-01-19T14:12:32.415Z,10.90
2023-01-19T14:13:41.811Z,9.90
2023-01-19T14:14:49.549Z,9.40
2023-01-19T14:15:56.496Z,10.00
2023-01-19T14:17:00.404Z,8.00
2023-01-19T14:18:12.189Z,9.00
2023-01-19T14:19:15.917Z,9.00
2023-01-19T14:20:30.632Z,8.40
2023-01-19T14:21:41.518Z,9.10
2023-01-19T14:22:46.653Z,11.10
2023-01-19T14:24:05.752Z,8.80
2023-01-19T14:25:29.156Z,8.20
2023-01-19T14:26:39.749Z,7.40
2023-01-19T14:27:45.964Z,8.20
2023-01-19T14:28:49.779Z,9.00
2023-01-19T14:29:54.942Z,7.50
2023-01-19T14:31:05.466Z,6.70
2023-01-19T14:32:20.014Z,9.40
2023-01-19T14:33:33.551Z,8.60
2023-01-19T14:35:04.424Z,6.60
2023-01-19T14:36:10.469Z,8.60
2023-01-19T14:37:23.199Z,10.00
2023-01-19T14:38:27.042Z,11.10
2023-01-19T14:39:34.523Z,8.20
2023-01-19T14:40:38.581Z,9.20
2023-01-19T14:41:48.217Z,9.50
2023-01-19T14:42:58.023Z,7.40
2023-01-19T14:44:03.200Z,9.60
2023-01-19T14:45:18.147Z,8.50
2023-01-19T14:46:22.698Z,7.40
2023-01-19T14:48:31.240Z,8.00
2023-01-19T14:49:40.912Z,9.20